Hauptseite
METAR-TAF:

METAR-TAF

Flughäfen :

Flughafen El Alto

La Paz, Bolivien

Breite: 16-31S, Länge: 068-11W, Höhe: 4058 m

Beobachtung

Neuester Wetterbericht von vor 15 Minuten, um 13:00 UTC
Wind 2 kt aus unterschiedlichen Richtungen
Temperatur 5°C
Luftfeuchtigkeit 48%
Luftdruck 1041 hPa
Sichtweite 10 km oder mehr

METAR: SLLP 201300Z VRB02KT 9999 NSC 05/M05 Q1041

Zeit: 09:15 (13:15 UTC)

Prognose

Neuester Wetterbericht von vor 3 Stunden und 15 Minuten, um 10:00 UTC
Gültige Prognose vom 20 um 12 UTC bis 21 um 12 UTC
Wind 6 kt aus Nordost
Sichtweite 10 km oder mehr
Leicht bewölkt in der Höhe von 1500 ft
Zeitweise
vom 20 um 18 UTC bis 20 um 22 UTC
Wind 12 kt aus Nordwest
Aufgelockert bewölkt in der Höhe von 1700 ft
Übergehend zu
vom 21 um 01 UTC bis 21 um 03 UTC

TAF: SLLP 201000Z 2012/2112 04006KT 9999 FEW015 TX15/2020Z TNM04/2110Z TEMPO 2018/2022 32012KT SCT017 BECMG 2101/2103 NSC

Wetterbeobachtungen und Prognosen von mehr als 4000 Flughäfen (METAR und TAF Bericht).

Die verfügbaren Stationen werden durch gelbe und rote Markierungen auf der Karte dargestellt.

Führen Sie die Maus auf sie, um den Namen der Station zu sehen.

Darauf klicken, um die Beobachtung von Wetterbeobachtungen und Prognosen zu sehen.

Um die Karte zu ändern : klicken Sie auf den grünen Tasten mit einem schwarzen Kreuz Zum Vergrößern, auf den grünen Button mit einem Gedankenstrich zu verkleinern, oder auf die grünen Pfeile für benachbarte Karten.


METAR-TAF: